N750 OMDB-OBBI
Flight info
| Callsign | N750 |
|---|---|
| Flight time | N/A |
| Altitude | 26000 |
| Route | NABIX3F NABIX P699 ORMID Y856 ALKAN/N0461F180 Y856 SOLOB/N0449F160 Y856 ORDIG ORDIG1 |
| Aircraft | C750/M-VGD/A |
Departure
| Time | 2026-04-24 16:13 |
|---|---|
| Airport | Dubai International Airport (OMDB) |
Arrival
| Time | N/A |
|---|---|
| Airport | Bahrain International Airport (OBBI) |
| Time | Latitude | Longitude | Altitude | Speed | Heading |
|---|---|---|---|---|---|
| 2026-04-24 15:42 | 25.26681 | 55.35369 | 18 ft | 0 kts | 31° |
| 2026-04-24 15:52 | 25.26666 | 55.35360 | 18 ft | 3 kts | 31° |
| 2026-04-24 15:52 | 25.26647 | 55.35348 | 18 ft | 3 kts | 24° |
| 2026-04-24 15:52 | 25.26635 | 55.35344 | 18 ft | 1 kts | 2° |
| 2026-04-24 15:52 | 25.26626 | 55.35345 | 18 ft | 0 kts | 346° |
| 2026-04-24 15:53 | 25.26597 | 55.35339 | 18 ft | 0 kts | 130° |
| 2026-04-24 15:54 | 25.26597 | 55.35340 | 18 ft | 0 kts | 130° |
| 2026-04-24 16:04 | 25.26590 | 55.35350 | 17 ft | 8 kts | 127° |
| 2026-04-24 16:04 | 25.26551 | 55.35418 | 14 ft | 6 kts | 123° |
| 2026-04-24 16:04 | 25.26493 | 55.35489 | 10 ft | 15 kts | 176° |
| 2026-04-24 16:05 | 25.26387 | 55.35545 | 7 ft | 11 kts | 119° |
| 2026-04-24 16:05 | 25.26335 | 55.35628 | 4 ft | 14 kts | 129° |
| 2026-04-24 16:06 | 25.26225 | 55.35832 | 3 ft | 15 kts | 121° |
| 2026-04-24 16:06 | 25.26172 | 55.35928 | 5 ft | 13 kts | 120° |
| 2026-04-24 16:06 | 25.26083 | 55.36087 | 8 ft | 16 kts | 122° |
| 2026-04-24 16:07 | 25.25999 | 55.36237 | 10 ft | 28 kts | 123° |
| 2026-04-24 16:07 | 25.25878 | 55.36458 | 14 ft | 38 kts | 120° |
| 2026-04-24 16:07 | 25.25583 | 55.36982 | 28 ft | 43 kts | 120° |
| 2026-04-24 16:08 | 25.25430 | 55.37265 | 29 ft | 41 kts | 121° |
| 2026-04-24 16:08 | 25.25136 | 55.37793 | 27 ft | 38 kts | 121° |
| 2026-04-24 16:09 | 25.24961 | 55.38106 | 24 ft | 10 kts | 137° |
| 2026-04-24 16:09 | 25.24952 | 55.38114 | 24 ft | 5 kts | 147° |
| 2026-04-24 16:09 | 25.24901 | 55.38110 | 25 ft | 7 kts | 214° |
| 2026-04-24 16:09 | 25.24889 | 55.38102 | 25 ft | 0 kts | 211° |
| 2026-04-24 16:10 | 25.24816 | 55.38006 | 28 ft | 0 kts | 304° |
| 2026-04-24 16:12 | 25.24827 | 55.37985 | 29 ft | 19 kts | 301° |
| 2026-04-24 16:12 | 25.25641 | 55.36523 | 391 ft | 178 kts | 301° |
| 2026-04-24 16:13 | 25.26320 | 55.35257 | 1332 ft | 207 kts | 302° |
| 2026-04-24 16:13 | 25.27832 | 55.32563 | 4123 ft | 211 kts | 302° |
| 2026-04-24 16:14 | 25.29320 | 55.29311 | 5021 ft | 270 kts | 277° |
| 2026-04-24 16:14 | 25.29019 | 55.27314 | 4982 ft | 273 kts | 243° |
| 2026-04-24 16:14 | 25.27095 | 55.23618 | 5020 ft | 279 kts | 245° |
| 2026-04-24 16:15 | 25.26525 | 55.22333 | 5012 ft | 274 kts | 245° |
| 2026-04-24 16:15 | 25.24709 | 55.18074 | 5010 ft | 264 kts | 245° |
| 2026-04-24 16:16 | 25.23772 | 55.14239 | 5521 ft | 258 kts | 262° |
| 2026-04-24 16:16 | 25.23496 | 55.12297 | 6010 ft | 259 kts | 262° |
| 2026-04-24 16:17 | 25.22709 | 55.06540 | 7022 ft | 272 kts | 261° |
| 2026-04-24 16:17 | 25.22153 | 55.02491 | 7007 ft | 260 kts | 262° |
| 2026-04-24 16:18 | 25.21624 | 54.98636 | 6999 ft | 253 kts | 262° |
| 2026-04-24 16:18 | 25.21089 | 54.94726 | 7037 ft | 266 kts | 263° |
| 2026-04-24 16:18 | 25.20945 | 54.92687 | 7021 ft | 272 kts | 266° |
| 2026-04-24 16:19 | 25.20682 | 54.88576 | 7793 ft | 262 kts | 268° |
| 2026-04-24 16:19 | 25.20665 | 54.86552 | 8265 ft | 266 kts | 270° |
| 2026-04-24 16:20 | 25.20714 | 54.82428 | 9231 ft | 275 kts | 270° |
| 2026-04-24 16:20 | 25.20780 | 54.78062 | 10227 ft | 293 kts | 271° |
| 2026-04-24 16:20 | 25.20814 | 54.75834 | 10705 ft | 295 kts | 270° |
| 2026-04-24 16:21 | 25.20883 | 54.71333 | 11655 ft | 294 kts | 270° |
| 2026-04-24 16:21 | 25.20916 | 54.69087 | 12124 ft | 293 kts | 270° |
| 2026-04-24 16:21 | 25.20949 | 54.66856 | 12593 ft | 295 kts | 270° |
| 2026-04-24 16:22 | 25.20981 | 54.64487 | 13122 ft | 324 kts | 270° |
| 2026-04-24 16:22 | 25.21045 | 54.59337 | 14129 ft | 338 kts | 273° |
| 2026-04-24 16:22 | 25.21689 | 54.56787 | 14620 ft | 360 kts | 294° |
| 2026-04-24 16:23 | 25.22734 | 54.54202 | 15154 ft | 378 kts | 291° |
| 2026-04-24 16:23 | 25.23770 | 54.51547 | 15635 ft | 381 kts | 293° |
| 2026-04-24 16:23 | 25.24822 | 54.48857 | 16108 ft | 386 kts | 292° |
| 2026-04-24 16:24 | 25.26985 | 54.43334 | 17083 ft | 396 kts | 293° |
| 2026-04-24 16:24 | 25.28079 | 54.40536 | 17563 ft | 401 kts | 292° |
| 2026-04-24 16:24 | 25.29186 | 54.37705 | 18047 ft | 405 kts | 292° |
| 2026-04-24 16:24 | 25.30302 | 54.34847 | 18537 ft | 408 kts | 292° |
| 2026-04-24 16:25 | 25.31421 | 54.31976 | 19019 ft | 410 kts | 292° |
| 2026-04-24 16:25 | 25.32546 | 54.29089 | 19504 ft | 413 kts | 292° |
| 2026-04-24 16:25 | 25.33683 | 54.26171 | 20004 ft | 414 kts | 291° |
| 2026-04-24 16:26 | 25.35969 | 54.20289 | 20984 ft | 417 kts | 291° |
| 2026-04-24 16:26 | 25.37112 | 54.17354 | 21462 ft | 417 kts | 291° |
| 2026-04-24 16:26 | 25.39383 | 54.11496 | 22436 ft | 418 kts | 291° |
| 2026-04-24 16:27 | 25.40534 | 54.08528 | 22928 ft | 418 kts | 291° |
| 2026-04-24 16:27 | 25.41676 | 54.05576 | 23422 ft | 418 kts | 291° |
| 2026-04-24 16:27 | 25.42813 | 54.02642 | 23915 ft | 417 kts | 291° |
| 2026-04-24 16:27 | 25.43946 | 53.99713 | 24407 ft | 417 kts | 291° |
| 2026-04-24 16:28 | 25.45092 | 53.96748 | 24902 ft | 416 kts | 291° |
| 2026-04-24 16:28 | 25.46207 | 53.93861 | 25387 ft | 414 kts | 291° |
| 2026-04-24 16:28 | 25.48478 | 53.87974 | 25838 ft | 418 kts | 291° |
| 2026-04-24 16:29 | 25.49611 | 53.85032 | 25841 ft | 418 kts | 291° |
| 2026-04-24 16:29 | 25.50759 | 53.82058 | 25846 ft | 418 kts | 291° |
| 2026-04-24 16:29 | 25.53027 | 53.76162 | 25855 ft | 418 kts | 291° |
| 2026-04-24 16:30 | 25.55293 | 53.70268 | 25854 ft | 418 kts | 291° |
| 2026-04-24 16:30 | 25.56438 | 53.67281 | 25859 ft | 418 kts | 291° |
| 2026-04-24 16:30 | 25.57558 | 53.64358 | 25863 ft | 418 kts | 291° |
| 2026-04-24 16:31 | 25.58703 | 53.61375 | 25859 ft | 418 kts | 291° |
| 2026-04-24 16:31 | 25.59832 | 53.58423 | 25857 ft | 418 kts | 291° |
| 2026-04-24 16:31 | 25.60966 | 53.55469 | 25862 ft | 418 kts | 291° |
| 2026-04-24 16:31 | 25.62092 | 53.52526 | 25859 ft | 418 kts | 291° |
| 2026-04-24 16:32 | 25.63224 | 53.49558 | 25858 ft | 417 kts | 291° |
| 2026-04-24 16:32 | 25.64360 | 53.46583 | 25858 ft | 417 kts | 291° |
| 2026-04-24 16:32 | 25.65488 | 53.43624 | 25861 ft | 417 kts | 291° |
| 2026-04-24 16:32 | 25.66557 | 53.40832 | 25858 ft | 417 kts | 291° |
| 2026-04-24 16:33 | 25.67684 | 53.37866 | 25855 ft | 417 kts | 291° |
| 2026-04-24 16:33 | 25.68815 | 53.34900 | 25859 ft | 417 kts | 290° |
| 2026-04-24 16:33 | 25.69949 | 53.31923 | 25865 ft | 417 kts | 290° |
| 2026-04-24 16:33 | 25.71062 | 53.28994 | 25867 ft | 417 kts | 290° |
| 2026-04-24 16:34 | 25.72187 | 53.26030 | 25867 ft | 418 kts | 290° |
| 2026-04-24 16:34 | 25.73320 | 53.23053 | 25863 ft | 418 kts | 290° |
| 2026-04-24 16:34 | 25.74447 | 53.20078 | 25865 ft | 418 kts | 290° |
| 2026-04-24 16:34 | 25.75562 | 53.17141 | 25867 ft | 418 kts | 290° |
| 2026-04-24 16:35 | 25.76689 | 53.14167 | 25866 ft | 418 kts | 290° |
| 2026-04-24 16:35 | 25.77811 | 53.11203 | 25864 ft | 418 kts | 290° |
| 2026-04-24 16:35 | 25.78942 | 53.08216 | 25865 ft | 418 kts | 290° |
| 2026-04-24 16:35 | 25.80056 | 53.05271 | 25866 ft | 418 kts | 290° |
| 2026-04-24 16:36 | 25.81174 | 53.02316 | 25868 ft | 417 kts | 290° |
| 2026-04-24 16:36 | 25.82288 | 52.99351 | 25871 ft | 417 kts | 290° |
| 2026-04-24 16:36 | 25.83413 | 52.96378 | 25881 ft | 417 kts | 290° |
| 2026-04-24 16:36 | 25.84528 | 52.93425 | 25879 ft | 417 kts | 290° |
| 2026-04-24 16:37 | 25.85656 | 52.90423 | 25879 ft | 417 kts | 290° |
| 2026-04-24 16:37 | 25.86762 | 52.87490 | 25876 ft | 417 kts | 290° |
| 2026-04-24 16:37 | 25.87888 | 52.84493 | 25876 ft | 417 kts | 290° |
| 2026-04-24 16:37 | 25.89001 | 52.81538 | 25882 ft | 417 kts | 290° |
| 2026-04-24 16:38 | 25.90109 | 52.78578 | 25881 ft | 417 kts | 290° |
| 2026-04-24 16:38 | 25.91223 | 52.75626 | 25881 ft | 417 kts | 290° |
| 2026-04-24 16:38 | 25.92338 | 52.72642 | 25879 ft | 417 kts | 290° |
| 2026-04-24 16:38 | 25.93449 | 52.69682 | 25881 ft | 417 kts | 290° |
| 2026-04-24 16:39 | 25.94564 | 52.66711 | 25883 ft | 417 kts | 290° |
| 2026-04-24 16:39 | 25.95676 | 52.63731 | 25880 ft | 417 kts | 290° |
| 2026-04-24 16:39 | 25.96784 | 52.60768 | 25881 ft | 417 kts | 290° |
| 2026-04-24 16:39 | 25.97885 | 52.57826 | 25880 ft | 417 kts | 290° |
| 2026-04-24 16:40 | 25.98996 | 52.54848 | 25881 ft | 417 kts | 290° |
| 2026-04-24 16:40 | 26.00111 | 52.51862 | 25878 ft | 417 kts | 290° |
| 2026-04-24 16:40 | 26.01221 | 52.48894 | 25872 ft | 416 kts | 290° |
| 2026-04-24 16:40 | 26.02318 | 52.45945 | 25877 ft | 416 kts | 290° |
| 2026-04-24 16:41 | 26.03412 | 52.42993 | 25874 ft | 416 kts | 290° |
| 2026-04-24 16:41 | 26.04529 | 52.40008 | 25874 ft | 416 kts | 290° |
| 2026-04-24 16:41 | 26.05633 | 52.37039 | 25872 ft | 416 kts | 290° |
| 2026-04-24 16:41 | 26.06736 | 52.34060 | 25879 ft | 417 kts | 290° |
| 2026-04-24 16:42 | 26.07838 | 52.31098 | 25878 ft | 417 kts | 290° |
| 2026-04-24 16:42 | 26.08948 | 52.28104 | 25877 ft | 417 kts | 290° |
| 2026-04-24 16:42 | 26.10043 | 52.25151 | 25884 ft | 417 kts | 290° |
| 2026-04-24 16:42 | 26.11151 | 52.22161 | 25884 ft | 418 kts | 290° |
| 2026-04-24 16:43 | 26.12264 | 52.19159 | 25875 ft | 418 kts | 290° |
| 2026-04-24 16:43 | 26.13356 | 52.16196 | 25881 ft | 418 kts | 290° |
| 2026-04-24 16:43 | 26.14452 | 52.13238 | 25880 ft | 418 kts | 289° |
| 2026-04-24 16:43 | 26.15557 | 52.10246 | 25884 ft | 418 kts | 289° |
| 2026-04-24 16:44 | 26.16656 | 52.07265 | 25878 ft | 418 kts | 289° |
| 2026-04-24 16:44 | 26.17762 | 52.04271 | 25883 ft | 418 kts | 289° |
| 2026-04-24 16:44 | 26.18866 | 52.01268 | 25879 ft | 418 kts | 289° |
| 2026-04-24 16:44 | 26.19964 | 51.98293 | 25888 ft | 418 kts | 289° |
| 2026-04-24 16:45 | 26.21077 | 51.95267 | 25883 ft | 418 kts | 289° |
| 2026-04-24 16:45 | 26.22174 | 51.92278 | 25880 ft | 418 kts | 289° |
| 2026-04-24 16:45 | 26.23266 | 51.89307 | 25884 ft | 418 kts | 289° |
| 2026-04-24 16:45 | 26.24372 | 51.86297 | 25884 ft | 418 kts | 289° |
| 2026-04-24 16:46 | 26.25464 | 51.83321 | 25885 ft | 418 kts | 289° |
| 2026-04-24 16:46 | 26.26559 | 51.80329 | 25890 ft | 418 kts | 289° |
| 2026-04-24 16:46 | 26.27657 | 51.77338 | 25882 ft | 418 kts | 290° |
| 2026-04-24 16:46 | 26.28759 | 51.74323 | 25885 ft | 421 kts | 289° |
| 2026-04-24 16:47 | 26.29874 | 51.71273 | 25899 ft | 432 kts | 289° |
| 2026-04-24 16:47 | 26.31004 | 51.68179 | 25893 ft | 441 kts | 289° |
| 2026-04-24 16:47 | 26.32171 | 51.64974 | 25905 ft | 449 kts | 289° |
| 2026-04-24 16:47 | 26.33363 | 51.61726 | 25898 ft | 457 kts | 289° |
| 2026-04-24 16:48 | 26.34542 | 51.58485 | 25897 ft | 449 kts | 290° |
| 2026-04-24 16:48 | 26.35708 | 51.55286 | 25892 ft | 441 kts | 290° |
| 2026-04-24 16:48 | 26.36858 | 51.52135 | 25889 ft | 434 kts | 289° |
| 2026-04-24 16:48 | 26.37973 | 51.49068 | 25888 ft | 428 kts | 289° |
| 2026-04-24 16:49 | 26.39072 | 51.46036 | 25886 ft | 422 kts | 289° |
| 2026-04-24 16:49 | 26.40175 | 51.43007 | 25892 ft | 417 kts | 289° |
| 2026-04-24 16:49 | 26.41258 | 51.40025 | 25884 ft | 412 kts | 289° |
| 2026-04-24 16:49 | 26.42312 | 51.37107 | 25887 ft | 408 kts | 289° |
| 2026-04-24 16:50 | 26.43022 | 51.35157 | 25894 ft | 405 kts | 289° |
| 2026-04-24 16:50 | 26.44421 | 51.31286 | 25894 ft | 401 kts | 289° |
| 2026-04-24 16:50 | 26.45353 | 51.28376 | 25874 ft | 396 kts | 279° |
| 2026-04-24 16:50 | 26.45326 | 51.25355 | 25908 ft | 388 kts | 257° |
| 2026-04-24 16:51 | 26.44429 | 51.22563 | 25926 ft | 386 kts | 249° |
| 2026-04-24 16:51 | 26.43447 | 51.19780 | 25900 ft | 385 kts | 249° |
| 2026-04-24 16:51 | 26.42433 | 51.17008 | 25806 ft | 384 kts | 249° |
| 2026-04-24 16:51 | 26.41435 | 51.14308 | 25380 ft | 378 kts | 249° |
| 2026-04-24 16:52 | 26.40442 | 51.11619 | 24861 ft | 368 kts | 248° |
| 2026-04-24 16:52 | 26.39726 | 51.09698 | 24483 ft | 361 kts | 248° |
| 2026-04-24 16:52 | 26.38850 | 51.07335 | 24006 ft | 355 kts | 249° |
| 2026-04-24 16:53 | 26.37903 | 51.04791 | 23264 ft | 354 kts | 249° |
| 2026-04-24 16:53 | 26.36974 | 51.02293 | 22536 ft | 353 kts | 249° |
| 2026-04-24 16:53 | 26.36037 | 50.99775 | 21810 ft | 353 kts | 248° |
| 2026-04-24 16:53 | 26.35093 | 50.97244 | 21047 ft | 353 kts | 248° |
| 2026-04-24 16:54 | 26.34153 | 50.94717 | 20282 ft | 353 kts | 248° |
| 2026-04-24 16:54 | 26.33248 | 50.92198 | 19494 ft | 353 kts | 252° |
| 2026-04-24 16:54 | 26.33089 | 50.89498 | 18700 ft | 356 kts | 277° |
| 2026-04-24 16:54 | 26.33814 | 50.86880 | 17971 ft | 358 kts | 288° |
| 2026-04-24 16:55 | 26.35178 | 50.84556 | 17179 ft | 368 kts | 311° |
| 2026-04-24 16:55 | 26.37089 | 50.82680 | 16448 ft | 366 kts | 313° |
| 2026-04-24 16:55 | 26.38873 | 50.80695 | 15674 ft | 362 kts | 306° |
| 2026-04-24 16:55 | 26.39932 | 50.78248 | 14902 ft | 352 kts | 279° |
| 2026-04-24 16:56 | 26.39878 | 50.75580 | 14113 ft | 346 kts | 254° |
| 2026-04-24 16:56 | 26.38764 | 50.73257 | 13338 ft | 344 kts | 229° |
| 2026-04-24 16:56 | 26.36815 | 50.71736 | 12558 ft | 345 kts | 203° |
| 2026-04-24 16:56 | 26.34456 | 50.71349 | 11790 ft | 346 kts | 178° |
| 2026-04-24 16:57 | 26.32204 | 50.72162 | 11003 ft | 342 kts | 150° |
| 2026-04-24 16:57 | 26.30554 | 50.73980 | 10229 ft | 337 kts | 123° |
| 2026-04-24 16:57 | 26.29830 | 50.76399 | 9467 ft | 331 kts | 96° |
| 2026-04-24 16:57 | 26.29699 | 50.78911 | 8734 ft | 325 kts | 93° |
| 2026-04-24 16:58 | 26.29586 | 50.81412 | 7968 ft | 320 kts | 93° |
| 2026-04-24 16:58 | 26.29132 | 50.83773 | 7168 ft | 314 kts | 117° |
| 2026-04-24 16:58 | 26.28059 | 50.85836 | 6437 ft | 308 kts | 122° |
| 2026-04-24 16:58 | 26.26938 | 50.87847 | 5724 ft | 301 kts | 123° |
| 2026-04-24 16:59 | 26.25824 | 50.89763 | 5137 ft | 292 kts | 122° |
| 2026-04-24 16:59 | 26.24746 | 50.91589 | 5003 ft | 269 kts | 123° |
| 2026-04-24 16:59 | 26.22694 | 50.95044 | 4992 ft | 262 kts | 123° |
| 2026-04-24 17:00 | 26.21708 | 50.96707 | 4990 ft | 254 kts | 123° |
| 2026-04-24 17:00 | 26.19806 | 50.99902 | 4889 ft | 247 kts | 123° |
| 2026-04-24 17:00 | 26.18830 | 51.01521 | 4575 ft | 252 kts | 122° |
| 2026-04-24 17:01 | 26.16850 | 51.04761 | 3956 ft | 258 kts | 122° |
| 2026-04-24 17:01 | 26.15815 | 51.06426 | 3655 ft | 263 kts | 122° |
| 2026-04-24 17:02 | 26.13548 | 51.09700 | 3038 ft | 273 kts | 142° |
| 2026-04-24 17:02 | 26.11782 | 51.10329 | 3006 ft | 268 kts | 180° |
| 2026-04-24 17:02 | 26.10064 | 51.09736 | 2999 ft | 258 kts | 217° |
| 2026-04-24 17:02 | 26.08882 | 51.08203 | 3024 ft | 263 kts | 240° |
| 2026-04-24 17:03 | 26.06978 | 51.04685 | 3002 ft | 267 kts | 241° |
| 2026-04-24 17:03 | 26.06023 | 51.02915 | 3002 ft | 267 kts | 241° |
| 2026-04-24 17:03 | 26.04903 | 51.01268 | 2989 ft | 270 kts | 219° |
| 2026-04-24 17:04 | 26.03181 | 51.00531 | 3021 ft | 268 kts | 183° |
| 2026-04-24 17:04 | 26.00164 | 51.02346 | 3051 ft | 255 kts | 123° |
| 2026-04-24 17:04 | 25.99093 | 51.03964 | 3024 ft | 258 kts | 123° |
| 2026-04-24 17:05 | 25.98302 | 51.05157 | 3026 ft | 258 kts | 123° |
| 2026-04-24 17:05 | 25.97477 | 51.06419 | 3016 ft | 259 kts | 123° |
| 2026-04-24 17:05 | 25.95335 | 51.09683 | 3012 ft | 260 kts | 122° |
| 2026-04-24 17:06 | 25.94439 | 51.11386 | 2992 ft | 256 kts | 102° |
| 2026-04-24 17:06 | 25.95632 | 51.14691 | 3032 ft | 241 kts | 32° |
| 2026-04-24 17:06 | 25.97010 | 51.15767 | 3016 ft | 243 kts | 32° |
| 2026-04-24 17:07 | 25.98048 | 51.16205 | 3002 ft | 243 kts | 7° |
| 2026-04-24 17:07 | 26.00146 | 51.15422 | 3023 ft | 249 kts | 317° |
| 2026-04-24 17:07 | 26.01078 | 51.11724 | 3018 ft | 260 kts | 275° |
| 2026-04-24 17:08 | 26.01435 | 51.07747 | 2976 ft | 258 kts | 295° |
| 2026-04-24 17:08 | 26.02280 | 51.06023 | 3008 ft | 253 kts | 307° |
| 2026-04-24 17:08 | 26.03525 | 51.04667 | 3014 ft | 249 kts | 320° |
| 2026-04-24 17:09 | 26.05177 | 51.01242 | 3002 ft | 255 kts | 296° |
| 2026-04-24 17:09 | 26.06815 | 50.97754 | 3002 ft | 253 kts | 308° |
| 2026-04-24 17:10 | 26.07829 | 50.96134 | 2996 ft | 254 kts | 307° |
| 2026-04-24 17:10 | 26.10961 | 50.91458 | 3001 ft | 256 kts | 298° |
| 2026-04-24 17:11 | 26.13604 | 50.86335 | 3005 ft | 256 kts | 304° |
| 2026-04-24 17:12 | 26.18281 | 50.77891 | 3002 ft | 248 kts | 304° |